sensor_id;sensor_type;location;lat;lon;timestamp;pressure;altitude;pressure_sealevel;temperature;humidity
64158;BME280;50449;51.528;5.076;2023-04-08T00:00:04;102128.81;;;14.16;54.50
64158;BME280;50449;51.528;5.076;2023-04-08T00:02:31;102125.28;;;14.15;54.57
64158;BME280;50449;51.528;5.076;2023-04-08T00:04:57;102128.81;;;14.16;54.18
64158;BME280;50449;51.528;5.076;2023-04-08T00:07:22;102133.44;;;14.15;54.35
64158;BME280;50449;51.528;5.076;2023-04-08T00:09:48;102131.78;;;14.14;54.55
64158;BME280;50449;51.528;5.076;2023-04-08T00:12:13;102131.78;;;14.14;54.29
64158;BME280;50449;51.528;5.076;2023-04-08T00:14:38;102132.84;;;14.13;54.42
64158;BME280;50449;51.528;5.076;2023-04-08T00:17:05;102129.31;;;14.13;54.53
64158;BME280;50449;51.528;5.076;2023-04-08T00:19:31;102142.88;;;14.13;54.48
64158;BME280;50449;51.528;5.076;2023-04-08T00:21:57;102130.38;;;14.12;54.28
64158;BME280;50449;51.528;5.076;2023-04-08T00:24:23;102139.34;;;14.12;54.33
64158;BME280;50449;51.528;5.076;2023-04-08T00:26:49;102137.69;;;14.11;54.56
64158;BME280;50449;51.528;5.076;2023-04-08T00:29:14;102143.34;;;14.10;54.43
64158;BME280;50449;51.528;5.076;2023-04-08T00:31:40;102139.56;;;14.11;54.59
64158;BME280;50449;51.528;5.076;2023-04-08T00:34:06;102148.78;;;14.10;54.18
64158;BME280;50449;51.528;5.076;2023-04-08T00:36:31;102153.16;;;14.11;54.24
64158;BME280;50449;51.528;5.076;2023-04-08T00:38:56;102143.34;;;14.10;54.35
64158;BME280;50449;51.528;5.076;2023-04-08T00:41:22;102143.56;;;14.08;54.65
64158;BME280;50449;51.528;5.076;2023-04-08T00:43:47;102142.75;;;14.07;54.44
64158;BME280;50449;51.528;5.076;2023-04-08T00:46:13;102146.28;;;14.08;54.33
64158;BME280;50449;51.528;5.076;2023-04-08T00:48:39;102151.13;;;14.06;54.51
64158;BME280;50449;51.528;5.076;2023-04-08T00:51:04;102157.41;;;14.06;54.24
64158;BME280;50449;51.528;5.076;2023-04-08T00:53:30;102156.56;;;14.06;54.39
64158;BME280;50449;51.528;5.076;2023-04-08T00:55:56;102155.75;;;14.05;54.71
64158;BME280;50449;51.528;5.076;2023-04-08T00:58:22;102151.38;;;14.04;54.40
64158;BME280;50449;51.528;5.076;2023-04-08T01:00:57;102150.56;;;14.04;54.46
64158;BME280;50449;51.528;5.076;2023-04-08T01:03:57;102149.94;;;14.02;54.69
64158;BME280;50449;51.528;5.076;2023-04-08T01:06:32;102152.66;;;14.02;54.27
64158;BME280;50449;51.528;5.076;2023-04-08T01:08:59;102159.16;;;14.01;54.65
64158;BME280;50449;51.528;5.076;2023-04-08T01:11:30;102160.81;;;14.02;54.50
64158;BME280;50449;51.528;5.076;2023-04-08T01:13:57;102163.53;;;14.02;54.51
64158;BME280;50449;51.528;5.076;2023-04-08T01:16:24;102163.53;;;14.02;54.36
64158;BME280;50449;51.528;5.076;2023-04-08T01:18:51;102159.16;;;14.01;54.47
64158;BME280;50449;51.528;5.076;2023-04-08T01:21:19;102160.81;;;14.02;54.58
64158;BME280;50449;51.528;5.076;2023-04-08T01:23:53;102162.31;;;13.98;54.48
64158;BME280;50449;51.528;5.076;2023-04-08T01:26:23;102156.28;;;13.96;54.23
64158;BME280;50449;51.528;5.076;2023-04-08T01:28:52;102165.28;;;13.96;54.46
64158;BME280;50449;51.528;5.076;2023-04-08T01:31:19;102166.34;;;13.95;54.55
64158;BME280;50449;51.528;5.076;2023-04-08T01:33:46;102164.44;;;13.96;54.53
64158;BME280;50449;51.528;5.076;2023-04-08T01:36:13;102163.41;;;13.97;54.43
64158;BME280;50449;51.528;5.076;2023-04-08T01:38:40;102157.16;;;13.96;54.45
64158;BME280;50449;51.528;5.076;2023-04-08T01:41:07;102161.50;;;13.97;54.51
64158;BME280;50449;51.528;5.076;2023-04-08T01:43:34;102165.03;;;13.98;54.24
64158;BME280;50449;51.528;5.076;2023-04-08T01:46:00;102170.47;;;13.98;54.52
64158;BME280;50449;51.528;5.076;2023-04-08T01:48:27;102168.00;;;13.96;54.58
64158;BME280;50449;51.528;5.076;2023-04-08T01:50:53;102165.28;;;13.96;54.48
64158;BME280;50449;51.528;5.076;2023-04-08T01:53:20;102166.13;;;13.97;54.57
64158;BME280;50449;51.528;5.076;2023-04-08T01:55:48;102172.38;;;13.97;54.42
64158;BME280;50449;51.528;5.076;2023-04-08T01:58:20;102167.75;;;13.98;54.71
64158;BME280;50449;51.528;5.076;2023-04-08T02:00:46;102168.00;;;13.96;54.21
64158;BME280;50449;51.528;5.076;2023-04-08T02:03:12;102172.38;;;13.97;54.53
64158;BME280;50449;51.528;5.076;2023-04-08T02:05:39;102169.88;;;13.96;54.39
64158;BME280;50449;51.528;5.076;2023-04-08T02:08:05;102168.00;;;13.96;54.23
64158;BME280;50449;51.528;5.076;2023-04-08T02:10:30;102160.91;;;13.95;54.47
64158;BME280;50449;51.528;5.076;2023-04-08T02:12:56;102159.25;;;13.94;54.37
64158;BME280;50449;51.528;5.076;2023-04-08T02:15:21;102160.91;;;13.95;54.47
64158;BME280;50449;51.528;5.076;2023-04-08T02:18:04;102161.97;;;13.94;54.34
64158;BME280;50449;51.528;5.076;2023-04-08T02:20:43;102160.06;;;13.95;54.39
64158;BME280;50449;51.528;5.076;2023-04-08T02:23:19;102166.81;;;13.92;54.57
64158;BME280;50449;51.528;5.076;2023-04-08T02:25:46;102164.09;;;13.92;54.68
64158;BME280;50449;51.528;5.076;2023-04-08T02:28:13;102155.94;;;13.92;54.49
64158;BME280;50449;51.528;5.076;2023-04-08T02:30:41;102173.06;;;13.93;54.72
64158;BME280;50449;51.528;5.076;2023-04-08T02:33:07;102164.09;;;13.92;54.36
64158;BME280;50449;51.528;5.076;2023-04-08T02:35:34;102171.16;;;13.93;54.36
64158;BME280;50449;51.528;5.076;2023-04-08T02:38:00;102167.63;;;13.93;54.32
64158;BME280;50449;51.528;5.076;2023-04-08T02:40:28;102164.91;;;13.93;54.63
64158;BME280;50449;51.528;5.076;2023-04-08T02:42:54;102167.63;;;13.93;54.53
64158;BME280;50449;51.528;5.076;2023-04-08T02:45:21;102172.22;;;13.92;54.41
64158;BME280;50449;51.528;5.076;2023-04-08T02:47:46;102181.22;;;13.93;54.39
64158;BME280;50449;51.528;5.076;2023-04-08T02:50:12;102181.22;;;13.93;54.41
64158;BME280;50449;51.528;5.076;2023-04-08T02:52:37;102177.66;;;13.92;54.60
64158;BME280;50449;51.528;5.076;2023-04-08T02:55:06;102168.69;;;13.92;54.64
64158;BME280;50449;51.528;5.076;2023-04-08T02:57:34;102181.44;;;13.91;54.47
64158;BME280;50449;51.528;5.076;2023-04-08T02:59:59;102179.78;;;13.90;54.54
64158;BME280;50449;51.528;5.076;2023-04-08T03:02:25;102180.59;;;13.91;54.45
64158;BME280;50449;51.528;5.076;2023-04-08T03:04:50;102183.31;;;13.91;54.52
64158;BME280;50449;51.528;5.076;2023-04-08T03:07:15;102174.59;;;13.89;54.67
64158;BME280;50449;51.528;5.076;2023-04-08T03:09:41;102181.66;;;13.90;54.45
64158;BME280;50449;51.528;5.076;2023-04-08T03:12:06;102178.94;;;13.90;54.57
64158;BME280;50449;51.528;5.076;2023-04-08T03:14:32;102188.19;;;13.89;54.38
64158;BME280;50449;51.528;5.076;2023-04-08T03:16:57;102183.56;;;13.89;54.57
64158;BME280;50449;51.528;5.076;2023-04-08T03:19:22;102183.78;;;13.88;54.31
64158;BME280;50449;51.528;5.076;2023-04-08T03:21:48;102187.31;;;13.88;54.61
64158;BME280;50449;51.528;5.076;2023-04-08T03:24:13;102183.78;;;13.88;54.53
64158;BME280;50449;51.528;5.076;2023-04-08T03:26:38;102180.25;;;13.87;54.82
64158;BME280;50449;51.528;5.076;2023-04-08T03:29:04;102187.31;;;13.88;54.41
64158;BME280;50449;51.528;5.076;2023-04-08T03:31:31;102177.53;;;13.87;54.45
64158;BME280;50449;51.528;5.076;2023-04-08T03:33:56;102182.97;;;13.87;54.53
64158;BME280;50449;51.528;5.076;2023-04-08T03:36:22;102184.84;;;13.87;54.63
64158;BME280;50449;51.528;5.076;2023-04-08T03:38:47;102188.59;;;13.85;54.37
64158;BME280;50449;51.528;5.076;2023-04-08T03:41:12;102196.75;;;13.85;54.68
64158;BME280;50449;51.528;5.076;2023-04-08T03:43:38;102194.91;;;13.86;54.79
64158;BME280;50449;51.528;5.076;2023-04-08T03:46:03;102194.91;;;13.86;54.54
64158;BME280;50449;51.528;5.076;2023-04-08T03:48:28;102199.47;;;13.85;54.65
64158;BME280;50449;51.528;5.076;2023-04-08T03:50:54;102199.47;;;13.85;54.39
64158;BME280;50449;51.528;5.076;2023-04-08T03:53:19;102199.47;;;13.85;54.29
64158;BME280;50449;51.528;5.076;2023-04-08T03:55:44;102200.53;;;13.84;54.53
64158;BME280;50449;51.528;5.076;2023-04-08T03:58:10;102207.88;;;13.84;54.35
64158;BME280;50449;51.528;5.076;2023-04-08T04:00:35;102207.88;;;13.84;54.61
64158;BME280;50449;51.528;5.076;2023-04-08T04:03:01;102203.47;;;13.83;54.27
64158;BME280;50449;51.528;5.076;2023-04-08T04:05:26;102203.47;;;13.83;54.51
64158;BME280;50449;51.528;5.076;2023-04-08T04:07:52;102197.22;;;13.82;54.48
64158;BME280;50449;51.528;5.076;2023-04-08T04:10:17;102201.00;;;13.81;54.47
64158;BME280;50449;51.528;5.076;2023-04-08T04:12:43;102190.97;;;13.82;54.43
64158;BME280;50449;51.528;5.076;2023-04-08T04:15:09;102197.47;;;13.81;54.32
64158;BME280;50449;51.528;5.076;2023-04-08T04:17:35;102194.75;;;13.81;54.50
64158;BME280;50449;51.528;5.076;2023-04-08T04:20:03;102194.75;;;13.81;54.62
64158;BME280;50449;51.528;5.076;2023-04-08T04:22:29;102202.50;;;13.77;54.51
64158;BME280;50449;51.528;5.076;2023-04-08T04:24:54;102202.50;;;13.77;54.21
64158;BME280;50449;51.528;5.076;2023-04-08T04:27:19;102207.13;;;13.77;54.61
64158;BME280;50449;51.528;5.076;2023-04-08T04:29:45;102213.38;;;13.77;54.60
64158;BME280;50449;51.528;5.076;2023-04-08T04:32:10;102203.59;;;13.76;54.70
64158;BME280;50449;51.528;5.076;2023-04-08T04:34:35;102215.28;;;13.77;54.77
64158;BME280;50449;51.528;5.076;2023-04-08T04:37:01;102214.44;;;13.76;54.76
64158;BME280;50449;51.528;5.076;2023-04-08T04:39:26;102220.69;;;13.77;54.73
64158;BME280;50449;51.528;5.076;2023-04-08T04:41:52;102224.25;;;13.77;54.51
64158;BME280;50449;51.528;5.076;2023-04-08T04:44:17;102226.94;;;13.77;54.44
64158;BME280;50449;51.528;5.076;2023-04-08T04:46:43;102224.25;;;13.77;54.53
64158;BME280;50449;51.528;5.076;2023-04-08T04:49:09;102232.38;;;13.77;54.40
64158;BME280;50449;51.528;5.076;2023-04-08T04:51:35;102233.22;;;13.78;54.45
64158;BME280;50449;51.528;5.076;2023-04-08T04:54:00;102238.63;;;13.78;54.37
64158;BME280;50449;51.528;5.076;2023-04-08T04:56:26;102235.09;;;13.77;54.62
64158;BME280;50449;51.528;5.076;2023-04-08T04:58:52;102235.09;;;13.77;54.55
64158;BME280;50449;51.528;5.076;2023-04-08T05:01:17;102237.00;;;13.77;54.75
64158;BME280;50449;51.528;5.076;2023-04-08T05:03:42;102237.00;;;13.77;54.60
64158;BME280;50449;51.528;5.076;2023-04-08T05:06:08;102248.69;;;13.77;54.66
64158;BME280;50449;51.528;5.076;2023-04-08T05:08:33;102246.22;;;13.76;54.45
64158;BME280;50449;51.528;5.076;2023-04-08T05:10:59;102249.75;;;13.76;54.75
64158;BME280;50449;51.528;5.076;2023-04-08T05:13:27;102249.75;;;13.76;54.44
64158;BME280;50449;51.528;5.076;2023-04-08T05:15:52;102256.22;;;13.75;54.47
64158;BME280;50449;51.528;5.076;2023-04-08T05:18:18;102257.06;;;13.76;54.62
64158;BME280;50449;51.528;5.076;2023-04-08T05:20:44;102260.63;;;13.76;54.36
64158;BME280;50449;51.528;5.076;2023-04-08T05:23:09;102259.78;;;13.76;54.34
64158;BME280;50449;51.528;5.076;2023-04-08T05:25:35;102258.13;;;13.75;54.55
64158;BME280;50449;51.528;5.076;2023-04-08T05:28:00;102264.38;;;13.75;54.38
64158;BME280;50449;51.528;5.076;2023-04-08T05:30:26;102265.44;;;13.74;54.62
64158;BME280;50449;51.528;5.076;2023-04-08T05:32:51;102263.53;;;13.75;54.46
64158;BME280;50449;51.528;5.076;2023-04-08T05:35:16;102260.81;;;13.75;54.49
64158;BME280;50449;51.528;5.076;2023-04-08T05:37:42;102268.16;;;13.74;54.32
64158;BME280;50449;51.528;5.076;2023-04-08T05:40:07;102271.69;;;13.75;54.45
64158;BME280;50449;51.528;5.076;2023-04-08T05:42:33;102273.59;;;13.74;54.33
64158;BME280;50449;51.528;5.076;2023-04-08T05:44:58;102276.28;;;13.74;54.40
64158;BME280;50449;51.528;5.076;2023-04-08T05:47:24;102273.59;;;13.74;54.45
64158;BME280;50449;51.528;5.076;2023-04-08T05:49:49;102271.09;;;13.73;54.27
64158;BME280;50449;51.528;5.076;2023-04-08T05:52:15;102275.47;;;13.74;54.58
64158;BME280;50449;51.528;5.076;2023-04-08T05:54:43;102278.19;;;13.74;54.19
64158;BME280;50449;51.528;5.076;2023-04-08T05:57:10;102275.69;;;13.72;54.41
64158;BME280;50449;51.528;5.076;2023-04-08T05:59:35;102277.34;;;13.73;54.39
64158;BME280;50449;51.528;5.076;2023-04-08T06:02:01;102278.41;;;13.72;54.65
64158;BME280;50449;51.528;5.076;2023-04-08T06:04:26;102285.47;;;13.73;54.69
64158;BME280;50449;51.528;5.076;2023-04-08T06:06:52;102291.97;;;13.72;54.48
64158;BME280;50449;51.528;5.076;2023-04-08T06:09:17;102287.38;;;13.73;54.38
64158;BME280;50449;51.528;5.076;2023-04-08T06:11:42;102294.69;;;13.72;54.72
64158;BME280;50449;51.528;5.076;2023-04-08T06:14:08;102293.63;;;13.73;54.41
64158;BME280;50449;51.528;5.076;2023-04-08T06:16:33;102298.25;;;13.73;54.48
64158;BME280;50449;51.528;5.076;2023-04-08T06:18:59;102302.03;;;13.72;54.41
64158;BME280;50449;51.528;5.076;2023-04-08T06:21:24;102310.16;;;13.72;54.44
64158;BME280;50449;51.528;5.076;2023-04-08T06:23:50;102307.44;;;13.72;54.49
64158;BME280;50449;51.528;5.076;2023-04-08T06:26:15;102310.16;;;13.72;54.76
64158;BME280;50449;51.528;5.076;2023-04-08T06:28:41;102313.72;;;13.72;54.46
64158;BME280;50449;51.528;5.076;2023-04-08T06:31:06;102312.06;;;13.71;54.53
64158;BME280;50449;51.528;5.076;2023-04-08T06:33:31;102323.75;;;13.72;54.41
64158;BME280;50449;51.528;5.076;2023-04-08T06:36:03;102321.84;;;13.72;54.51
64158;BME280;50449;51.528;5.076;2023-04-08T06:38:29;102318.31;;;13.72;54.64
64158;BME280;50449;51.528;5.076;2023-04-08T06:40:55;102325.41;;;13.73;54.43
64158;BME280;50449;51.528;5.076;2023-04-08T06:43:21;102327.50;;;13.71;54.43
64158;BME280;50449;51.528;5.076;2023-04-08T06:45:46;102335.44;;;13.72;54.56
64158;BME280;50449;51.528;5.076;2023-04-08T06:48:11;102338.16;;;13.72;54.61
64158;BME280;50449;51.528;5.076;2023-04-08T06:50:37;102340.88;;;13.72;54.44
64158;BME280;50449;51.528;5.076;2023-04-08T06:53:02;102336.50;;;13.71;54.67
64158;BME280;50449;51.528;5.076;2023-04-08T06:55:27;102340.03;;;13.72;54.50
64158;BME280;50449;51.528;5.076;2023-04-08T06:57:53;102340.88;;;13.72;54.52
64158;BME280;50449;51.528;5.076;2023-04-08T07:00:18;102352.56;;;13.73;54.54
64158;BME280;50449;51.528;5.076;2023-04-08T07:02:43;102349.84;;;13.73;54.64
64158;BME280;50449;51.528;5.076;2023-04-08T07:05:09;102344.41;;;13.73;54.56
64158;BME280;50449;51.528;5.076;2023-04-08T07:07:35;102352.56;;;13.73;54.43
64158;BME280;50449;51.528;5.076;2023-04-08T07:10:00;102354.44;;;13.72;54.40
64158;BME280;50449;51.528;5.076;2023-04-08T07:12:26;102358.81;;;13.73;54.67
64158;BME280;50449;51.528;5.076;2023-04-08T07:14:51;102366.94;;;13.73;54.48
64158;BME280;50449;51.528;5.076;2023-04-08T07:17:17;102367.56;;;13.75;54.38
64158;BME280;50449;51.528;5.076;2023-04-08T07:19:42;102363.19;;;13.74;54.40
64158;BME280;50449;51.528;5.076;2023-04-08T07:22:08;102367.56;;;13.75;54.38
64158;BME280;50449;51.528;5.076;2023-04-08T07:24:34;102370.28;;;13.75;54.56
64158;BME280;50449;51.528;5.076;2023-04-08T07:26:59;102370.28;;;13.75;54.90
64158;BME280;50449;51.528;5.076;2023-04-08T07:29:24;102375.72;;;13.75;54.61
64158;BME280;50449;51.528;5.076;2023-04-08T07:31:50;102376.31;;;13.77;54.59
64158;BME280;50449;51.528;5.076;2023-04-08T07:34:16;102363.00;;;13.76;54.51
64158;BME280;50449;51.528;5.076;2023-04-08T07:36:41;102376.56;;;13.76;54.58
64158;BME280;50449;51.528;5.076;2023-04-08T07:39:07;102376.31;;;13.77;54.62
64158;BME280;50449;51.528;5.076;2023-04-08T07:41:32;102376.31;;;13.77;54.72
64158;BME280;50449;51.528;5.076;2023-04-08T07:43:58;102376.31;;;13.77;54.31
64158;BME280;50449;51.528;5.076;2023-04-08T07:46:23;102379.28;;;13.76;54.62
64158;BME280;50449;51.528;5.076;2023-04-08T07:48:49;102388.88;;;13.78;54.73
64158;BME280;50449;51.528;5.076;2023-04-08T07:51:14;102388.88;;;13.78;54.46
64158;BME280;50449;51.528;5.076;2023-04-08T07:53:40;102394.31;;;13.78;54.47
64158;BME280;50449;51.528;5.076;2023-04-08T07:56:14;102392.41;;;13.79;54.79
64158;BME280;50449;51.528;5.076;2023-04-08T07:58:40;102390.53;;;13.79;54.56
64158;BME280;50449;51.528;5.076;2023-04-08T08:01:19;102393.44;;;13.78;54.53
64158;BME280;50449;51.528;5.076;2023-04-08T08:03:46;102397.00;;;13.78;54.60
64158;BME280;50449;51.528;5.076;2023-04-08T08:06:12;102401.38;;;13.79;54.46
64158;BME280;50449;51.528;5.076;2023-04-08T08:08:40;102403.88;;;13.81;54.64
64158;BME280;50449;51.528;5.076;2023-04-08T08:11:06;102404.72;;;13.81;54.62
64158;BME280;50449;51.528;5.076;2023-04-08T08:13:32;102404.47;;;13.83;54.60
64158;BME280;50449;51.528;5.076;2023-04-08T08:15:57;102410.75;;;13.83;54.63
64158;BME280;50449;51.528;5.076;2023-04-08T08:18:22;102411.59;;;13.84;54.74
64158;BME280;50449;51.528;5.076;2023-04-08T08:20:48;102416.78;;;13.85;54.52
64158;BME280;50449;51.528;5.076;2023-04-08T08:23:13;102414.06;;;13.85;54.65
64158;BME280;50449;51.528;5.076;2023-04-08T08:25:39;102413.03;;;13.87;54.69
64158;BME280;50449;51.528;5.076;2023-04-08T08:29:41;102421.63;;;13.83;54.69
64158;BME280;50449;51.528;5.076;2023-04-08T08:32:06;102424.50;;;13.89;54.86
64158;BME280;50449;51.528;5.076;2023-04-08T08:34:32;102427.38;;;13.94;54.48
64158;BME280;50449;51.528;5.076;2023-04-08T08:36:58;102432.09;;;13.98;54.57
64158;BME280;50449;51.528;5.076;2023-04-08T08:39:23;102431.69;;;14.01;54.45
64158;BME280;50449;51.528;5.076;2023-04-08T08:41:48;102427.06;;;14.02;54.35
64158;BME280;50449;51.528;5.076;2023-04-08T08:44:14;102432.06;;;14.05;54.22
64158;BME280;50449;51.528;5.076;2023-04-08T08:46:43;102432.06;;;14.05;54.43
64158;BME280;50449;51.528;5.076;2023-04-08T08:49:09;102437.03;;;14.08;54.22
64158;BME280;50449;51.528;5.076;2023-04-08T08:51:36;102439.53;;;14.10;54.61
64158;BME280;50449;51.528;5.076;2023-04-08T08:54:06;102440.16;;;14.12;54.54
64158;BME280;50449;51.528;5.076;2023-04-08T08:56:32;102446.19;;;14.14;54.32
64158;BME280;50449;51.528;5.076;2023-04-08T08:58:58;102447.84;;;14.15;54.40
64158;BME280;50449;51.528;5.076;2023-04-08T09:01:34;102452.00;;;14.17;54.52
64158;BME280;50449;51.528;5.076;2023-04-08T09:04:16;102454.72;;;14.17;54.38
64158;BME280;50449;51.528;5.076;2023-04-08T09:06:45;102451.78;;;14.19;54.61
64158;BME280;50449;51.528;5.076;2023-04-08T09:09:11;102451.53;;;14.20;54.39
64158;BME280;50449;51.528;5.076;2023-04-08T09:11:42;102457.59;;;14.22;54.58
64158;BME280;50449;51.528;5.076;2023-04-08T09:14:24;102457.59;;;14.22;54.45
64158;BME280;50449;51.528;5.076;2023-04-08T09:16:51;102460.91;;;14.24;54.36
64158;BME280;50449;51.528;5.076;2023-04-08T09:19:16;102459.03;;;14.25;54.49
64158;BME280;50449;51.528;5.076;2023-04-08T09:21:42;102462.34;;;14.27;54.71
64158;BME280;50449;51.528;5.076;2023-04-08T09:24:08;102464.84;;;14.28;54.67
64158;BME280;50449;51.528;5.076;2023-04-08T09:26:35;102467.34;;;14.30;54.74
64158;BME280;50449;51.528;5.076;2023-04-08T09:31:30;102468.78;;;14.33;54.67
64158;BME280;50449;51.528;5.076;2023-04-08T09:34:00;102468.56;;;14.34;54.85
64158;BME280;50449;51.528;5.076;2023-04-08T09:36:33;102466.41;;;14.36;54.85
64158;BME280;50449;51.528;5.076;2023-04-08T09:38:58;102466.22;;;14.38;54.66
64158;BME280;50449;51.528;5.076;2023-04-08T09:41:27;102474.16;;;14.39;54.72
64158;BME280;50449;51.528;5.076;2023-04-08T09:43:54;102474.97;;;14.40;54.69
64158;BME280;50449;51.528;5.076;2023-04-08T09:46:27;102482.31;;;14.39;54.99
64158;BME280;50449;51.528;5.076;2023-04-08T09:49:17;102478.50;;;14.40;54.61
64158;BME280;50449;51.528;5.076;2023-04-08T09:52:01;102469.31;;;14.41;54.91
64158;BME280;50449;51.528;5.076;2023-04-08T09:57:20;102481.63;;;14.44;55.05
64158;BME280;50449;51.528;5.076;2023-04-08T09:59:51;102483.06;;;14.46;55.10
64158;BME280;50449;51.528;5.076;2023-04-08T10:02:28;102486.16;;;14.50;55.09
64158;BME280;50449;51.528;5.076;2023-04-08T10:04:56;102474.84;;;14.53;54.89
64158;BME280;50449;51.528;5.076;2023-04-08T10:07:23;102483.00;;;14.53;55.03
64158;BME280;50449;51.528;5.076;2023-04-08T10:09:49;102472.75;;;14.55;54.91
64158;BME280;50449;51.528;5.076;2023-04-08T10:12:14;102477.72;;;14.58;55.05
64158;BME280;50449;51.528;5.076;2023-04-08T10:14:40;102474.53;;;14.61;54.59
64158;BME280;50449;51.528;5.076;2023-04-08T10:17:41;102475.59;;;14.60;54.95
64158;BME280;50449;51.528;5.076;2023-04-08T10:22:57;102475.97;;;14.64;55.01
64158;BME280;50449;51.528;5.076;2023-04-08T10:25:32;102472.81;;;14.67;55.19
64158;BME280;50449;51.528;5.076;2023-04-08T10:27:59;102482.41;;;14.69;55.00
64158;BME280;50449;51.528;5.076;2023-04-08T10:32:58;102484.44;;;14.74;54.99
64158;BME280;50449;51.528;5.076;2023-04-08T10:35:32;102483.16;;;14.77;55.21
64158;BME280;50449;51.528;5.076;2023-04-08T10:37:59;102485.41;;;14.80;55.18
64158;BME280;50449;51.528;5.076;2023-04-08T10:40:25;102481.63;;;14.81;54.95
64158;BME280;50449;51.528;5.076;2023-04-08T10:42:54;102476.78;;;14.83;55.16
64158;BME280;50449;51.528;5.076;2023-04-08T10:45:20;102471.97;;;14.85;55.00
64158;BME280;50449;51.528;5.076;2023-04-08T10:47:46;102481.31;;;14.89;55.10
64158;BME280;50449;51.528;5.076;2023-04-08T10:50:13;102472.09;;;14.90;55.03
64158;BME280;50449;51.528;5.076;2023-04-08T10:52:49;102462.88;;;14.91;55.35
64158;BME280;50449;51.528;5.076;2023-04-08T10:55:21;102470.81;;;14.92;55.07
64158;BME280;50449;51.528;5.076;2023-04-08T10:57:49;102464.91;;;14.96;54.99
64158;BME280;50449;51.528;5.076;2023-04-08T11:00:34;102463.63;;;14.98;54.81
64158;BME280;50449;51.528;5.076;2023-04-08T11:03:05;102471.56;;;15.00;55.15
64158;BME280;50449;51.528;5.076;2023-04-08T11:05:32;102469.41;;;15.02;55.02
64158;BME280;50449;51.528;5.076;2023-04-08T11:07:58;102468.13;;;15.04;55.04
64158;BME280;50449;51.528;5.076;2023-04-08T11:10:25;102466.00;;;15.06;54.95
64158;BME280;50449;51.528;5.076;2023-04-08T11:12:52;102467.44;;;15.09;54.83
64158;BME280;50449;51.528;5.076;2023-04-08T11:15:18;102471.59;;;15.11;55.17
64158;BME280;50449;51.528;5.076;2023-04-08T11:17:43;102461.31;;;15.13;55.11
64158;BME280;50449;51.528;5.076;2023-04-08T11:20:09;102461.91;;;15.15;54.92
64158;BME280;50449;51.528;5.076;2023-04-08T11:22:35;102467.13;;;15.17;54.97
64158;BME280;50449;51.528;5.076;2023-04-08T11:25:01;102460.41;;;15.20;55.34
64158;BME280;50449;51.528;5.076;2023-04-08T11:27:27;102456.59;;;15.21;55.06
64158;BME280;50449;51.528;5.076;2023-04-08T11:29:54;102446.31;;;15.23;55.04
64158;BME280;50449;51.528;5.076;2023-04-08T11:32:21;102446.06;;;15.24;54.96
64158;BME280;50449;51.528;5.076;2023-04-08T11:34:50;102442.91;;;15.27;54.79
64158;BME280;50449;51.528;5.076;2023-04-08T11:37:17;102454.38;;;15.29;54.77
64158;BME280;50449;51.528;5.076;2023-04-08T11:39:43;102441.59;;;15.30;55.13
64158;BME280;50449;51.528;5.076;2023-04-08T11:42:09;102449.31;;;15.33;54.79
64158;BME280;50449;51.528;5.076;2023-04-08T11:44:50;102435.44;;;15.34;55.12
64158;BME280;50449;51.528;5.076;2023-04-08T11:47:15;102435.00;;;15.38;55.15
64158;BME280;50449;51.528;5.076;2023-04-08T11:49:44;102429.28;;;15.39;55.07
64158;BME280;50449;51.528;5.076;2023-04-08T11:52:10;102437.25;;;15.41;54.90
64158;BME280;50449;51.528;5.076;2023-04-08T11:54:40;102440.09;;;15.46;55.10
64158;BME280;50449;51.528;5.076;2023-04-08T11:57:06;102437.72;;;15.49;54.66
64158;BME280;50449;51.528;5.076;2023-04-08T11:59:34;102432.88;;;15.51;55.20
64158;BME280;50449;51.528;5.076;2023-04-08T12:01:59;102436.19;;;15.53;54.83
64158;BME280;50449;51.528;5.076;2023-04-08T12:04:26;102435.72;;;15.56;55.09
64158;BME280;50449;51.528;5.076;2023-04-08T12:06:51;102437.41;;;15.57;55.30
64158;BME280;50449;51.528;5.076;2023-04-08T12:09:17;102435.03;;;15.61;54.99
64158;BME280;50449;51.528;5.076;2023-04-08T12:11:42;102434.81;;;15.63;54.99
64158;BME280;50449;51.528;5.076;2023-04-08T12:14:08;102429.91;;;15.65;55.10
64158;BME280;50449;51.528;5.076;2023-04-08T12:16:33;102429.69;;;15.66;55.35
64158;BME280;50449;51.528;5.076;2023-04-08T12:18:59;102429.25;;;15.69;55.09
64158;BME280;50449;51.528;5.076;2023-04-08T12:21:24;102425.00;;;15.73;54.97
64158;BME280;50449;51.528;5.076;2023-04-08T12:23:52;102433.78;;;15.75;54.87
64158;BME280;50449;51.528;5.076;2023-04-08T12:26:17;102430.56;;;15.78;55.11
64158;BME280;50449;51.528;5.076;2023-04-08T12:28:44;102428.44;;;15.81;54.96
64158;BME280;50449;51.528;5.076;2023-04-08T12:31:10;102433.19;;;15.85;54.70
64158;BME280;50449;51.528;5.076;2023-04-08T12:33:35;102435.44;;;15.88;54.59
64158;BME280;50449;51.528;5.076;2023-04-08T12:36:01;102441.00;;;15.93;54.90
64158;BME280;50449;51.528;5.076;2023-04-08T12:38:26;102440.53;;;15.96;54.91
64158;BME280;50449;51.528;5.076;2023-04-08T12:40:52;102432.69;;;16.00;54.70
64158;BME280;50449;51.528;5.076;2023-04-08T12:43:18;102433.06;;;16.04;54.74
64158;BME280;50449;51.528;5.076;2023-04-08T12:45:43;102426.91;;;16.08;54.75
64158;BME280;50449;51.528;5.076;2023-04-08T12:48:09;102414.44;;;16.12;54.78
64158;BME280;50449;51.528;5.076;2023-04-08T12:50:35;102429.25;;;16.16;54.42
64158;BME280;50449;51.528;5.076;2023-04-08T12:53:00;102417.63;;;16.21;54.90
64158;BME280;50449;51.528;5.076;2023-04-08T12:55:25;102423.19;;;16.26;54.61
64158;BME280;50449;51.528;5.076;2023-04-08T12:57:51;102411.81;;;16.29;54.44
64158;BME280;50449;51.528;5.076;2023-04-08T13:00:17;102413.81;;;16.34;54.69